sensor_id;sensor_type;location;lat;lon;timestamp;pressure;altitude;pressure_sealevel;temperature;humidity
68871;BME280;55906;52.278;6.808;2023-04-21T00:00:49;101371.78;;;10.96;73.71
68871;BME280;55906;52.278;6.808;2023-04-21T00:03:16;101372.63;;;10.95;74.74
68871;BME280;55906;52.278;6.808;2023-04-21T00:05:44;101367.47;;;10.98;74.89
68871;BME280;55906;52.278;6.808;2023-04-21T00:08:12;101369.31;;;11.00;74.39
68871;BME280;55906;52.278;6.808;2023-04-21T00:10:39;101362.22;;;10.98;75.09
68871;BME280;55906;52.278;6.808;2023-04-21T00:13:06;101360.22;;;10.90;76.99
68871;BME280;55906;52.278;6.808;2023-04-21T00:15:32;101348.84;;;10.92;76.65
68871;BME280;55906;52.278;6.808;2023-04-21T00:17:59;101356.94;;;10.98;76.32
68871;BME280;55906;52.278;6.808;2023-04-21T00:20:26;101354.16;;;10.93;77.04
68871;BME280;55906;52.278;6.808;2023-04-21T00:22:52;101349.13;;;11.01;76.09
68871;BME280;55906;52.278;6.808;2023-04-21T00:25:21;101344.78;;;11.01;76.84
68871;BME280;55906;52.278;6.808;2023-04-21T00:27:47;101342.88;;;10.97;77.54
68871;BME280;55906;52.278;6.808;2023-04-21T00:30:14;101339.41;;;10.98;77.50
68871;BME280;55906;52.278;6.808;2023-04-21T00:32:41;101336.69;;;10.95;77.97
68871;BME280;55906;52.278;6.808;2023-04-21T00:35:08;101331.69;;;11.04;76.79
68871;BME280;55906;52.278;6.808;2023-04-21T00:37:35;101329.22;;;11.09;77.42
68871;BME280;55906;52.278;6.808;2023-04-21T00:40:02;101327.66;;;11.15;76.28
68871;BME280;55906;52.278;6.808;2023-04-21T00:42:31;101324.97;;;11.14;76.24
68871;BME280;55906;52.278;6.808;2023-04-21T00:44:57;101317.88;;;11.11;76.37
68871;BME280;55906;52.278;6.808;2023-04-21T00:47:24;101316.00;;;11.07;77.43
68871;BME280;55906;52.278;6.808;2023-04-21T00:49:51;101312.44;;;11.05;77.52
68871;BME280;55906;52.278;6.808;2023-04-21T00:52:18;101309.09;;;11.11;76.71
68871;BME280;55906;52.278;6.808;2023-04-21T00:54:45;101314.97;;;11.02;78.00
68871;BME280;55906;52.278;6.808;2023-04-21T00:57:11;101304.47;;;11.04;77.59
68871;BME280;55906;52.278;6.808;2023-04-21T00:59:40;101300.16;;;11.06;77.91
68871;BME280;55906;52.278;6.808;2023-04-21T01:02:07;101300.91;;;11.02;77.69
68871;BME280;55906;52.278;6.808;2023-04-21T01:04:34;101295.72;;;11.05;77.10
68871;BME280;55906;52.278;6.808;2023-04-21T01:07:04;101293.75;;;10.98;79.34
68871;BME280;55906;52.278;6.808;2023-04-21T01:09:32;101299.81;;;10.95;78.87
68871;BME280;55906;52.278;6.808;2023-04-21T01:12:00;101294.50;;;10.94;78.90
68871;BME280;55906;52.278;6.808;2023-04-21T01:14:27;101290.88;;;10.90;79.53
68871;BME280;55906;52.278;6.808;2023-04-21T01:16:55;101298.94;;;10.95;79.57
68871;BME280;55906;52.278;6.808;2023-04-21T01:19:23;101307.53;;;10.89;80.03
68871;BME280;55906;52.278;6.808;2023-04-21T01:21:51;101295.16;;;10.86;80.57
68871;BME280;55906;52.278;6.808;2023-04-21T01:24:22;101290.94;;;10.92;80.38
68871;BME280;55906;52.278;6.808;2023-04-21T01:26:48;101299.72;;;10.92;80.16
68871;BME280;55906;52.278;6.808;2023-04-21T01:29:15;101293.56;;;10.92;80.59
68871;BME280;55906;52.278;6.808;2023-04-21T01:31:42;101304.09;;;10.92;80.75
68871;BME280;55906;52.278;6.808;2023-04-21T01:34:11;101315.63;;;10.95;80.51
68871;BME280;55906;52.278;6.808;2023-04-21T01:36:38;101309.38;;;10.92;81.31
68871;BME280;55906;52.278;6.808;2023-04-21T01:39:06;101315.56;;;10.94;80.73
68871;BME280;55906;52.278;6.808;2023-04-21T01:41:33;101327.13;;;10.99;79.87
68871;BME280;55906;52.278;6.808;2023-04-21T01:44:00;101323.91;;;11.07;79.20
68871;BME280;55906;52.278;6.808;2023-04-21T01:46:26;101338.84;;;11.08;79.61
68871;BME280;55906;52.278;6.808;2023-04-21T01:48:53;101336.16;;;11.07;80.16
68871;BME280;55906;52.278;6.808;2023-04-21T01:51:20;101324.78;;;11.08;79.90
68871;BME280;55906;52.278;6.808;2023-04-21T01:53:46;101328.31;;;11.08;79.53
68871;BME280;55906;52.278;6.808;2023-04-21T01:56:14;101338.06;;;11.11;79.88
68871;BME280;55906;52.278;6.808;2023-04-21T01:58:43;101337.97;;;11.08;80.13
68871;BME280;55906;52.278;6.808;2023-04-21T02:01:09;101337.09;;;11.09;80.02
68871;BME280;55906;52.278;6.808;2023-04-21T02:03:36;101329.31;;;11.12;79.57
68871;BME280;55906;52.278;6.808;2023-04-21T02:06:03;101327.66;;;11.15;79.27
68871;BME280;55906;52.278;6.808;2023-04-21T02:08:30;101332.88;;;11.14;79.15
68871;BME280;55906;52.278;6.808;2023-04-21T02:10:56;101334.75;;;11.18;79.23
68871;BME280;55906;52.278;6.808;2023-04-21T02:13:24;101334.81;;;11.19;78.28
68871;BME280;55906;52.278;6.808;2023-04-21T02:15:51;101319.81;;;11.17;79.07
68871;BME280;55906;52.278;6.808;2023-04-21T02:18:18;101328.31;;;11.08;80.42
68871;BME280;55906;52.278;6.808;2023-04-21T02:20:46;101330.28;;;11.15;78.95
68871;BME280;55906;52.278;6.808;2023-04-21T02:23:12;101330.19;;;11.12;80.01
68871;BME280;55906;52.278;6.808;2023-04-21T02:25:39;101325.91;;;11.16;79.19
68871;BME280;55906;52.278;6.808;2023-04-21T02:28:05;101326.84;;;11.18;78.97
68871;BME280;55906;52.278;6.808;2023-04-21T02:30:34;101318.06;;;11.17;78.97
68871;BME280;55906;52.278;6.808;2023-04-21T02:33:00;101321.63;;;11.19;79.25
68871;BME280;55906;52.278;6.808;2023-04-21T02:35:27;101319.91;;;11.20;78.58
68871;BME280;55906;52.278;6.808;2023-04-21T02:37:53;101324.94;;;11.12;79.08
68871;BME280;55906;52.278;6.808;2023-04-21T02:40:20;101328.38;;;11.10;79.62
68871;BME280;55906;52.278;6.808;2023-04-21T02:42:47;101322.25;;;11.11;78.91
68871;BME280;55906;52.278;6.808;2023-04-21T02:45:13;101325.72;;;11.10;79.15
68871;BME280;55906;52.278;6.808;2023-04-21T02:47:41;101316.03;;;11.09;79.35
68871;BME280;55906;52.278;6.808;2023-04-21T02:50:09;101327.53;;;11.11;79.54
68871;BME280;55906;52.278;6.808;2023-04-21T02:52:38;101335.38;;;11.09;79.23
68871;BME280;55906;52.278;6.808;2023-04-21T02:55:05;101345.09;;;11.12;79.17
68871;BME280;55906;52.278;6.808;2023-04-21T02:57:32;101336.22;;;11.08;80.13
68871;BME280;55906;52.278;6.808;2023-04-21T02:59:59;101339.97;;;11.16;78.91
68871;BME280;55906;52.278;6.808;2023-04-21T03:02:25;101330.44;;;11.20;77.99
68871;BME280;55906;52.278;6.808;2023-04-21T03:04:53;101339.28;;;11.22;78.98
68871;BME280;55906;52.278;6.808;2023-04-21T03:07:20;101335.84;;;11.25;78.07
68871;BME280;55906;52.278;6.808;2023-04-21T03:09:47;101335.78;;;11.23;78.04
68871;BME280;55906;52.278;6.808;2023-04-21T03:12:14;101337.69;;;11.27;77.78
68871;BME280;55906;52.278;6.808;2023-04-21T03:14:40;101339.50;;;11.30;78.20
68871;BME280;55906;52.278;6.808;2023-04-21T03:17:07;101334.19;;;11.28;78.68
68871;BME280;55906;52.278;6.808;2023-04-21T03:19:33;101343.97;;;11.32;77.58
68871;BME280;55906;52.278;6.808;2023-04-21T03:22:01;101344.91;;;11.34;77.56
68871;BME280;55906;52.278;6.808;2023-04-21T03:24:28;101344.16;;;11.38;77.18
68871;BME280;55906;52.278;6.808;2023-04-21T03:26:55;101341.53;;;11.38;77.76
68871;BME280;55906;52.278;6.808;2023-04-21T03:29:21;101344.03;;;11.34;77.93
68871;BME280;55906;52.278;6.808;2023-04-21T03:31:48;101344.03;;;11.34;78.08
68871;BME280;55906;52.278;6.808;2023-04-21T03:34:15;101343.22;;;11.36;77.28
68871;BME280;55906;52.278;6.808;2023-04-21T03:36:41;101345.84;;;11.36;77.98
68871;BME280;55906;52.278;6.808;2023-04-21T03:39:09;101344.16;;;11.38;77.95
68871;BME280;55906;52.278;6.808;2023-04-21T03:41:36;101341.44;;;11.35;77.59
68871;BME280;55906;52.278;6.808;2023-04-21T03:44:03;101347.63;;;11.37;77.91
68871;BME280;55906;52.278;6.808;2023-04-21T03:46:29;101342.38;;;11.37;77.48
68871;BME280;55906;52.278;6.808;2023-04-21T03:48:56;101337.19;;;11.40;77.27
68871;BME280;55906;52.278;6.808;2023-04-21T03:51:22;101338.97;;;11.41;77.01
68871;BME280;55906;52.278;6.808;2023-04-21T03:53:49;101335.41;;;11.39;77.24
68871;BME280;55906;52.278;6.808;2023-04-21T03:56:17;101330.09;;;11.38;77.48
68871;BME280;55906;52.278;6.808;2023-04-21T03:58:43;101328.22;;;11.34;77.38
68871;BME280;55906;52.278;6.808;2023-04-21T04:01:10;101329.97;;;11.33;77.31
68871;BME280;55906;52.278;6.808;2023-04-21T04:03:37;101327.31;;;11.33;77.33
68871;BME280;55906;52.278;6.808;2023-04-21T04:06:03;101330.53;;;11.23;78.59
68871;BME280;55906;52.278;6.808;2023-04-21T04:08:30;101324.31;;;11.21;78.33
68871;BME280;55906;52.278;6.808;2023-04-21T04:10:57;101320.84;;;11.22;78.47
68871;BME280;55906;52.278;6.808;2023-04-21T04:13:25;101327.09;;;11.26;77.84
68871;BME280;55906;52.278;6.808;2023-04-21T04:15:53;101318.44;;;11.30;77.73
68871;BME280;55906;52.278;6.808;2023-04-21T04:18:19;101318.47;;;11.31;77.54
68871;BME280;55906;52.278;6.808;2023-04-21T04:20:46;101320.19;;;11.29;78.45
68871;BME280;55906;52.278;6.808;2023-04-21T04:23:13;101314.06;;;11.30;77.76
68871;BME280;55906;52.278;6.808;2023-04-21T04:25:39;101316.59;;;11.27;77.94
68871;BME280;55906;52.278;6.808;2023-04-21T04:28:06;101320.28;;;11.32;77.63
68871;BME280;55906;52.278;6.808;2023-04-21T04:30:34;101319.50;;;11.36;77.44
68871;BME280;55906;52.278;6.808;2023-04-21T04:33:01;101310.72;;;11.36;77.52
68871;BME280;55906;52.278;6.808;2023-04-21T04:35:28;101318.53;;;11.33;77.54
68871;BME280;55906;52.278;6.808;2023-04-21T04:37:54;101321.28;;;11.37;77.38
68871;BME280;55906;52.278;6.808;2023-04-21T04:40:22;101327.47;;;11.38;77.79
68871;BME280;55906;52.278;6.808;2023-04-21T04:42:48;101330.13;;;11.39;77.04
68871;BME280;55906;52.278;6.808;2023-04-21T04:45:15;101320.31;;;11.34;77.84
68871;BME280;55906;52.278;6.808;2023-04-21T04:47:48;101332.63;;;11.35;77.69
68871;BME280;55906;52.278;6.808;2023-04-21T04:50:14;101335.19;;;11.32;77.62
68871;BME280;55906;52.278;6.808;2023-04-21T04:52:41;101332.63;;;11.35;77.14
68871;BME280;55906;52.278;6.808;2023-04-21T04:55:11;101334.50;;;11.39;77.23
68871;BME280;55906;52.278;6.808;2023-04-21T04:57:38;101335.41;;;11.39;77.33
68871;BME280;55906;52.278;6.808;2023-04-21T05:00:05;101334.47;;;11.37;77.75
68871;BME280;55906;52.278;6.808;2023-04-21T05:02:35;101339.78;;;11.39;77.29
68871;BME280;55906;52.278;6.808;2023-04-21T05:05:07;101340.84;;;11.45;77.13
68871;BME280;55906;52.278;6.808;2023-04-21T05:07:34;101339.16;;;11.47;76.89
68871;BME280;55906;52.278;6.808;2023-04-21T05:10:01;101335.31;;;11.36;77.33
68871;BME280;55906;52.278;6.808;2023-04-21T05:12:29;101341.56;;;11.40;77.23
68871;BME280;55906;52.278;6.808;2023-04-21T05:14:56;101345.00;;;11.37;77.16
68871;BME280;55906;52.278;6.808;2023-04-21T05:17:23;101347.63;;;11.37;77.76
68871;BME280;55906;52.278;6.808;2023-04-21T05:19:49;101353.94;;;11.42;77.31
68871;BME280;55906;52.278;6.808;2023-04-21T05:22:17;101349.66;;;11.46;76.50
68871;BME280;55906;52.278;6.808;2023-04-21T05:24:44;101352.19;;;11.43;76.71
68871;BME280;55906;52.278;6.808;2023-04-21T05:27:11;101347.59;;;11.36;77.48
68871;BME280;55906;52.278;6.808;2023-04-21T05:29:38;101353.06;;;11.42;77.18
68871;BME280;55906;52.278;6.808;2023-04-21T05:32:04;101352.19;;;11.43;77.18
68871;BME280;55906;52.278;6.808;2023-04-21T05:34:31;101364.63;;;11.47;76.39
68871;BME280;55906;52.278;6.808;2023-04-21T05:36:58;101356.56;;;11.42;76.98
68871;BME280;55906;52.278;6.808;2023-04-21T05:39:27;101360.25;;;11.47;76.89
68871;BME280;55906;52.278;6.808;2023-04-21T05:41:54;101360.25;;;11.47;76.50
68871;BME280;55906;52.278;6.808;2023-04-21T05:44:20;101354.22;;;11.51;76.48
68871;BME280;55906;52.278;6.808;2023-04-21T05:46:47;101365.78;;;11.57;76.62
68871;BME280;55906;52.278;6.808;2023-04-21T05:49:14;101371.16;;;11.60;76.32
68871;BME280;55906;52.278;6.808;2023-04-21T05:51:40;101373.06;;;11.65;76.31
68871;BME280;55906;52.278;6.808;2023-04-21T05:54:07;101370.53;;;11.68;76.18
68871;BME280;55906;52.278;6.808;2023-04-21T05:56:35;101372.25;;;11.68;76.08
68871;BME280;55906;52.278;6.808;2023-04-21T05:59:01;101372.44;;;11.72;75.85
68871;BME280;55906;52.278;6.808;2023-04-21T06:01:28;101368.94;;;11.73;76.63
68871;BME280;55906;52.278;6.808;2023-04-21T06:03:55;101369.16;;;11.79;75.53
68871;BME280;55906;52.278;6.808;2023-04-21T06:06:21;101361.47;;;11.87;75.72
68871;BME280;55906;52.278;6.808;2023-04-21T06:08:48;101374.16;;;12.00;75.08
68871;BME280;55906;52.278;6.808;2023-04-21T06:11:14;101364.63;;;12.05;75.66
68871;BME280;55906;52.278;6.808;2023-04-21T06:13:42;101362.31;;;12.17;74.70
68871;BME280;55906;52.278;6.808;2023-04-21T06:16:09;101353.72;;;12.25;74.69
68871;BME280;55906;52.278;6.808;2023-04-21T06:18:36;101351.28;;;12.32;74.62
68871;BME280;55906;52.278;6.808;2023-04-21T06:21:03;101352.25;;;12.36;73.99
68871;BME280;55906;52.278;6.808;2023-04-21T06:23:30;101351.16;;;12.28;74.55
68871;BME280;55906;52.278;6.808;2023-04-21T06:26:00;101366.13;;;12.29;74.57
68871;BME280;55906;52.278;6.808;2023-04-21T06:28:29;101354.53;;;12.22;74.78
68871;BME280;55906;52.278;6.808;2023-04-21T06:30:57;101352.13;;;12.31;74.54
68871;BME280;55906;52.278;6.808;2023-04-21T06:33:24;101353.19;;;12.38;73.85
68871;BME280;55906;52.278;6.808;2023-04-21T06:35:51;101346.25;;;12.41;74.18
68871;BME280;55906;52.278;6.808;2023-04-21T06:38:17;101355.22;;;12.48;74.01
68871;BME280;55906;52.278;6.808;2023-04-21T06:40:44;101351.91;;;12.57;73.49
68871;BME280;55906;52.278;6.808;2023-04-21T06:43:11;101352.88;;;12.60;73.65
68871;BME280;55906;52.278;6.808;2023-04-21T06:45:37;101342.44;;;12.65;73.24
68871;BME280;55906;52.278;6.808;2023-04-21T06:48:06;101343.66;;;12.79;72.92
68871;BME280;55906;52.278;6.808;2023-04-21T06:50:32;101333.94;;;12.76;72.53
68871;BME280;55906;52.278;6.808;2023-04-21T06:52:59;101335.63;;;12.74;72.64
68871;BME280;55906;52.278;6.808;2023-04-21T06:55:25;101343.84;;;12.87;72.65
68871;BME280;55906;52.278;6.808;2023-04-21T06:57:52;101341.44;;;12.96;72.12
68871;BME280;55906;52.278;6.808;2023-04-21T07:00:19;101336.19;;;12.97;71.89
68871;BME280;55906;52.278;6.808;2023-04-21T07:02:46;101338.16;;;13.04;71.61
68871;BME280;55906;52.278;6.808;2023-04-21T07:05:14;101335.84;;;13.18;71.42
68871;BME280;55906;52.278;6.808;2023-04-21T07:07:41;101340.41;;;13.25;71.04
68871;BME280;55906;52.278;6.808;2023-04-21T07:10:08;101334.41;;;13.32;71.09
68871;BME280;55906;52.278;6.808;2023-04-21T07:12:35;101337.31;;;13.44;70.42
68871;BME280;55906;52.278;6.808;2023-04-21T07:15:02;101331.53;;;13.62;70.14
68871;BME280;55906;52.278;6.808;2023-04-21T07:17:29;101330.84;;;13.71;69.79
68871;BME280;55906;52.278;6.808;2023-04-21T07:19:55;101328.28;;;13.75;69.49
68871;BME280;55906;52.278;6.808;2023-04-21T07:22:23;101326.75;;;13.87;69.39
68871;BME280;55906;52.278;6.808;2023-04-21T07:24:50;101323.34;;;13.94;68.93
68871;BME280;55906;52.278;6.808;2023-04-21T07:27:16;101328.69;;;13.95;68.86
68871;BME280;55906;52.278;6.808;2023-04-21T07:29:44;101317.53;;;14.12;68.13
68871;BME280;55906;52.278;6.808;2023-04-21T07:32:11;101328.28;;;14.21;68.20
68871;BME280;55906;52.278;6.808;2023-04-21T07:34:37;101322.25;;;14.29;68.05
68871;BME280;55906;52.278;6.808;2023-04-21T07:37:04;101321.56;;;14.38;67.54
68871;BME280;55906;52.278;6.808;2023-04-21T07:39:32;101318.38;;;14.56;67.14
68871;BME280;55906;52.278;6.808;2023-04-21T07:41:58;101320.06;;;14.52;66.06
68871;BME280;55906;52.278;6.808;2023-04-21T07:44:25;101315.63;;;14.50;65.82
68871;BME280;55906;52.278;6.808;2023-04-21T07:46:53;101330.06;;;14.68;66.23
68871;BME280;55906;52.278;6.808;2023-04-21T07:49:20;101323.28;;;14.86;65.37
68871;BME280;55906;52.278;6.808;2023-04-21T07:51:46;101319.84;;;14.93;65.31
68871;BME280;55906;52.278;6.808;2023-04-21T07:54:13;101312.88;;;14.99;65.34
68871;BME280;55906;52.278;6.808;2023-04-21T07:56:41;101316.59;;;15.11;64.70
68871;BME280;55906;52.278;6.808;2023-04-21T07:59:08;101314.03;;;15.18;64.57
68871;BME280;55906;52.278;6.808;2023-04-21T08:01:34;101319.31;;;15.17;63.96
68871;BME280;55906;52.278;6.808;2023-04-21T08:04:01;101319.38;;;15.21;64.17
68871;BME280;55906;52.278;6.808;2023-04-21T08:06:27;101322.19;;;15.32;63.56
68871;BME280;55906;52.278;6.808;2023-04-21T08:08:54;101318.06;;;15.54;63.51
68871;BME280;55906;52.278;6.808;2023-04-21T08:11:21;101325.44;;;15.75;63.22
68871;BME280;55906;52.278;6.808;2023-04-21T08:13:49;101317.59;;;15.82;62.43
68871;BME280;55906;52.278;6.808;2023-04-21T08:16:15;101306.19;;;15.91;62.19
68871;BME280;55906;52.278;6.808;2023-04-21T08:18:42;101313.34;;;15.98;61.56
68871;BME280;55906;52.278;6.808;2023-04-21T08:21:09;101324.09;;;16.12;61.60
68871;BME280;55906;52.278;6.808;2023-04-21T08:23:35;101310.69;;;15.99;60.81
68871;BME280;55906;52.278;6.808;2023-04-21T08:26:02;101313.25;;;15.90;61.60
68871;BME280;55906;52.278;6.808;2023-04-21T08:28:29;101310.81;;;16.10;61.38
68871;BME280;55906;52.278;6.808;2023-04-21T08:30:57;101311.81;;;16.23;61.29
68871;BME280;55906;52.278;6.808;2023-04-21T08:33:24;101318.94;;;16.27;60.89
68871;BME280;55906;52.278;6.808;2023-04-21T08:35:51;101319.72;;;16.15;60.08
68871;BME280;55906;52.278;6.808;2023-04-21T08:38:18;101321.50;;;16.18;60.58
68871;BME280;55906;52.278;6.808;2023-04-21T08:40:44;101318.91;;;16.24;59.91
68871;BME280;55906;52.278;6.808;2023-04-21T08:43:12;101317.91;;;16.13;60.04
68871;BME280;55906;52.278;6.808;2023-04-21T08:45:40;101309.91;;;16.08;59.81
68871;BME280;55906;52.278;6.808;2023-04-21T08:48:11;101314.41;;;16.15;59.84
68871;BME280;55906;52.278;6.808;2023-04-21T08:50:42;101322.34;;;16.12;58.52
68871;BME280;55906;52.278;6.808;2023-04-21T08:53:10;101319.63;;;16.06;59.31
68871;BME280;55906;52.278;6.808;2023-04-21T08:55:37;101318.75;;;16.09;59.32
68871;BME280;55906;52.278;6.808;2023-04-21T08:58:03;101325.84;;;16.10;59.21
68871;BME280;55906;52.278;6.808;2023-04-21T09:00:31;101318.75;;;16.09;59.17
68871;BME280;55906;52.278;6.808;2023-04-21T09:02:59;101322.38;;;16.17;59.18
68871;BME280;55906;52.278;6.808;2023-04-21T09:05:28;101312.69;;;16.22;59.06
68871;BME280;55906;52.278;6.808;2023-04-21T09:08:06;101311.72;;;16.14;59.39
68871;BME280;55906;52.278;6.808;2023-04-21T09:10:41;101314.47;;;16.23;59.00
68871;BME280;55906;52.278;6.808;2023-04-21T09:13:08;101315.41;;;16.26;59.08
68871;BME280;55906;52.278;6.808;2023-04-21T09:15:37;101312.81;;;16.34;59.00
68871;BME280;55906;52.278;6.808;2023-04-21T09:18:09;101310.06;;;16.25;58.88
68871;BME280;55906;52.278;6.808;2023-04-21T09:20:38;101315.41;;;16.26;58.96
68871;BME280;55906;52.278;6.808;2023-04-21T09:23:05;101310.16;;;16.32;58.94
68871;BME280;55906;52.278;6.808;2023-04-21T09:25:32;101312.81;;;16.34;58.84
68871;BME280;55906;52.278;6.808;2023-04-21T09:27:59;101309.22;;;16.27;58.21
68871;BME280;55906;52.278;6.808;2023-04-21T09:30:26;101317.22;;;16.32;58.66
68871;BME280;55906;52.278;6.808;2023-04-21T09:32:55;101316.38;;;16.36;58.33
68871;BME280;55906;52.278;6.808;2023-04-21T09:35:22;101315.53;;;16.40;58.28
68871;BME280;55906;52.278;6.808;2023-04-21T09:37:50;101313.78;;;16.42;58.50
68871;BME280;55906;52.278;6.808;2023-04-21T09:40:17;101313.91;;;16.59;58.32
68871;BME280;55906;52.278;6.808;2023-04-21T09:42:44;101321.06;;;16.64;58.27
68871;BME280;55906;52.278;6.808;2023-04-21T09:45:12;101314.09;;;16.76;58.06
68871;BME280;55906;52.278;6.808;2023-04-21T09:47:40;101305.22;;;16.74;57.35
68871;BME280;55906;52.278;6.808;2023-04-21T09:50:11;101306.19;;;16.85;57.64
68871;BME280;55906;52.278;6.808;2023-04-21T09:52:38;101307.09;;;16.88;57.87
68871;BME280;55906;52.278;6.808;2023-04-21T09:55:11;101310.72;;;16.97;57.20
68871;BME280;55906;52.278;6.808;2023-04-21T09:57:40;101304.56;;;17.02;57.60
68871;BME280;55906;52.278;6.808;2023-04-21T10:00:10;101311.69;;;17.06;57.21
68871;BME280;55906;52.278;6.808;2023-04-21T10:02:42;101310.81;;;17.07;56.91
68871;BME280;55906;52.278;6.808;2023-04-21T10:05:09;101313.47;;;17.10;56.64
68871;BME280;55906;52.278;6.808;2023-04-21T10:07:36;101306.41;;;17.14;56.34
68871;BME280;55906;52.278;6.808;2023-04-21T10:10:08;101303.78;;;17.18;56.98
68871;BME280;55906;52.278;6.808;2023-04-21T10:12:38;101299.41;;;17.30;56.63
68871;BME280;55906;52.278;6.808;2023-04-21T10:15:09;101298.56;;;17.41;56.35
68871;BME280;55906;52.278;6.808;2023-04-21T10:17:53;101299.47;;;17.43;56.10
68871;BME280;55906;52.278;6.808;2023-04-21T10:20:19;101301.13;;;17.21;56.84
68871;BME280;55906;52.278;6.808;2023-04-21T10:22:56;101308.31;;;17.39;56.75
68871;BME280;55906;52.278;6.808;2023-04-21T10:25:28;101303.00;;;17.42;56.94
68871;BME280;55906;52.278;6.808;2023-04-21T10:27:55;101293.25;;;17.41;56.89
68871;BME280;55906;52.278;6.808;2023-04-21T10:30:23;101295.94;;;17.44;57.22
68871;BME280;55906;52.278;6.808;2023-04-21T10:33:01;101288.00;;;17.55;57.71
68871;BME280;55906;52.278;6.808;2023-04-21T10:35:59;101288.09;;;17.69;57.67
68871;BME280;55906;52.278;6.808;2023-04-21T10:38:32;101284.47;;;17.65;57.85
68871;BME280;55906;52.278;6.808;2023-04-21T10:41:24;101280.09;;;17.69;57.45
68871;BME280;55906;52.278;6.808;2023-04-21T10:43:52;101276.53;;;17.67;57.33
68871;BME280;55906;52.278;6.808;2023-04-21T10:46:32;101278.25;;;17.62;57.18
68871;BME280;55906;52.278;6.808;2023-04-21T10:49:07;101271.16;;;17.57;56.29
68871;BME280;55906;52.278;6.808;2023-04-21T10:52:01;101269.38;;;17.59;56.37
68871;BME280;55906;52.278;6.808;2023-04-21T10:54:29;101268.47;;;17.50;57.12
68871;BME280;55906;52.278;6.808;2023-04-21T10:57:05;101265.81;;;17.56;56.75
68871;BME280;55906;52.278;6.808;2023-04-21T10:59:34;101271.22;;;17.68;56.20
68871;BME280;55906;52.278;6.808;2023-04-21T11:02:01;101262.34;;;17.71;56.02
68871;BME280;55906;52.278;6.808;2023-04-21T11:04:27;101263.25;;;17.73;55.62
68871;BME280;55906;52.278;6.808;2023-04-21T11:07:05;101257.97;;;17.83;54.93
68871;BME280;55906;52.278;6.808;2023-04-21T11:09:32;101263.28;;;17.82;55.21
68871;BME280;55906;52.278;6.808;2023-04-21T11:11:59;101257.94;;;17.73;54.79
68871;BME280;55906;52.278;6.808;2023-04-21T11:14:28;101259.75;;;17.87;54.71
68871;BME280;55906;52.278;6.808;2023-04-21T11:16:55;101258.84;;;17.84;53.29
68871;BME280;55906;52.278;6.808;2023-04-21T11:19:21;101248.19;;;17.82;54.19
68871;BME280;55906;52.278;6.808;2023-04-21T11:21:49;101239.31;;;17.82;52.96
68871;BME280;55906;52.278;6.808;2023-04-21T11:24:16;101247.31;;;17.85;53.39
68871;BME280;55906;52.278;6.808;2023-04-21T11:26:42;101237.56;;;18.01;53.47
68871;BME280;55906;52.278;6.808;2023-04-21T11:29:10;101234.94;;;18.19;52.79
68871;BME280;55906;52.278;6.808;2023-04-21T11:31:40;101223.44;;;18.31;51.73
68871;BME280;55906;52.278;6.808;2023-04-21T11:34:07;101227.84;;;18.48;51.31
68871;BME280;55906;52.278;6.808;2023-04-21T11:36:34;101222.50;;;18.58;50.68
68871;BME280;55906;52.278;6.808;2023-04-21T11:39:03;101223.41;;;18.72;51.06
68871;BME280;55906;52.278;6.808;2023-04-21T11:41:32;101218.06;;;18.84;51.09
68871;BME280;55906;52.278;6.808;2023-04-21T11:44:00;101217.13;;;19.00;51.15
68871;BME280;55906;52.278;6.808;2023-04-21T11:46:27;101210.91;;;19.01;50.39
68871;BME280;55906;52.278;6.808;2023-04-21T11:49:00;101208.22;;;19.07;50.23
68871;BME280;55906;52.278;6.808;2023-04-21T11:51:32;101210.91;;;18.92;49.69
68871;BME280;55906;52.278;6.808;2023-04-21T11:53:59;101211.81;;;18.88;50.63
68871;BME280;55906;52.278;6.808;2023-04-21T11:56:26;101203.81;;;18.96;50.25
68871;BME280;55906;52.278;6.808;2023-04-21T11:58:52;101199.34;;;18.99;50.21
68871;BME280;55906;52.278;6.808;2023-04-21T12:01:20;101195.81;;;18.93;49.87
68871;BME280;55906;52.278;6.808;2023-04-21T12:03:51;101186.00;;;18.98;50.06
68871;BME280;55906;52.278;6.808;2023-04-21T12:06:24;101180.63;;;19.13;49.77
68871;BME280;55906;52.278;6.808;2023-04-21T12:08:55;101176.94;;;19.41;50.00
68871;BME280;55906;52.278;6.808;2023-04-21T12:11:23;101165.28;;;19.67;49.77
68871;BME280;55906;52.278;6.808;2023-04-21T12:13:50;101165.09;;;19.93;49.47
68871;BME280;55906;52.278;6.808;2023-04-21T12:16:17;101155.03;;;20.21;48.58
68871;BME280;55906;52.278;6.808;2023-04-21T12:18:43;101160.06;;;20.56;48.61
68871;BME280;55906;52.278;6.808;2023-04-21T12:21:13;101144.81;;;20.67;47.38
68871;BME280;55906;52.278;6.808;2023-04-21T12:23:41;101143.56;;;20.98;47.24
68871;BME280;55906;52.278;6.808;2023-04-21T12:26:09;101142.41;;;21.19;45.74
68871;BME280;55906;52.278;6.808;2023-04-21T12:28:36;101134.66;;;21.62;44.98
68871;BME280;55906;52.278;6.808;2023-04-21T12:31:03;101117.22;;;22.45;42.98
68871;BME280;55906;52.278;6.808;2023-04-21T12:33:29;101119.72;;;23.40;42.29
68871;BME280;55906;52.278;6.808;2023-04-21T12:35:56;101116.69;;;24.30;41.18
68871;BME280;55906;52.278;6.808;2023-04-21T12:38:23;101115.69;;;24.99;40.44
68871;BME280;55906;52.278;6.808;2023-04-21T12:40:51;101107.56;;;25.86;39.45
68871;BME280;55906;52.278;6.808;2023-04-21T12:43:18;101113.19;;;26.32;39.04
68871;BME280;55906;52.278;6.808;2023-04-21T12:45:44;101110.50;;;26.32;38.74
68871;BME280;55906;52.278;6.808;2023-04-21T12:48:11;101101.41;;;26.35;37.47
68871;BME280;55906;52.278;6.808;2023-04-21T12:50:38;101101.03;;;26.19;37.66
68871;BME280;55906;52.278;6.808;2023-04-21T12:53:04;101095.75;;;26.16;37.98